createdAt,value
2018-10-11T00:01:20.017Z,63.40
2018-10-11T00:05:23.782Z,63.30
2018-10-11T00:09:27.531Z,63.40
2018-10-11T00:13:31.264Z,63.40
2018-10-11T00:17:34.989Z,63.60
2018-10-11T00:21:39.202Z,63.40
2018-10-11T00:25:42.962Z,63.30
2018-10-11T00:29:46.724Z,63.50
2018-10-11T00:33:50.449Z,63.50
2018-10-11T00:37:54.256Z,63.30
2018-10-11T00:41:58.082Z,64.20
2018-10-11T00:46:01.813Z,64.30
2018-10-11T00:50:05.585Z,63.60
2018-10-11T00:54:09.565Z,64.20
2018-10-11T00:58:13.310Z,65.00
2018-10-11T01:02:17.018Z,65.40
2018-10-11T01:06:20.757Z,66.00
2018-10-11T01:10:24.553Z,68.30
2018-10-11T01:14:28.375Z,66.30
2018-10-11T01:18:32.205Z,65.70
2018-10-11T01:22:35.899Z,64.30
2018-10-11T01:26:39.742Z,63.80
2018-10-11T01:30:48.719Z,64.70
2018-10-11T01:34:52.465Z,64.30
2018-10-11T01:38:56.305Z,63.90
2018-10-11T01:43:04.654Z,64.00
2018-10-11T01:47:08.505Z,63.70
2018-10-11T01:51:12.325Z,63.80
2018-10-11T01:55:16.069Z,63.90
2018-10-11T01:59:19.784Z,63.80
2018-10-11T02:03:23.545Z,63.80
2018-10-11T02:07:27.237Z,63.70
2018-10-11T02:11:30.966Z,63.80
2018-10-11T02:15:34.686Z,63.80
2018-10-11T02:19:38.446Z,63.90
2018-10-11T02:23:42.286Z,64.00
2018-10-11T02:27:45.998Z,64.80
2018-10-11T02:31:49.757Z,64.10
2018-10-11T02:35:53.532Z,63.80
2018-10-11T02:39:57.413Z,63.90
2018-10-11T02:44:01.216Z,64.00
2018-10-11T02:48:05.547Z,64.30
2018-10-11T02:52:09.321Z,64.20
2018-10-11T02:56:13.349Z,64.10
2018-10-11T03:00:17.158Z,63.90
2018-10-11T03:04:21.013Z,64.10
2018-10-11T03:08:25.930Z,64.20
2018-10-11T03:12:29.684Z,64.10
2018-10-11T03:16:33.418Z,64.10
2018-10-11T03:20:37.178Z,64.10
2018-10-11T03:24:41.193Z,64.30
2018-10-11T03:28:44.909Z,64.60
2018-10-11T03:32:48.623Z,64.60
2018-10-11T03:36:52.373Z,65.00
2018-10-11T03:40:56.102Z,64.80
2018-10-11T03:44:59.833Z,64.60
2018-10-11T03:49:03.556Z,64.60
2018-10-11T03:53:07.356Z,64.20
2018-10-11T03:57:13.278Z,64.40
2018-10-11T04:01:18.626Z,64.40
2018-10-11T04:05:22.400Z,63.70
2018-10-11T04:09:26.108Z,64.40
2018-10-11T04:13:29.909Z,64.60
2018-10-11T04:17:33.737Z,64.60
2018-10-11T04:21:37.468Z,64.70
2018-10-11T04:25:41.194Z,64.60
2018-10-11T04:29:44.927Z,64.40
2018-10-11T04:33:48.633Z,64.70
2018-10-11T04:37:52.398Z,64.80
2018-10-11T04:41:56.221Z,64.80
2018-10-11T04:45:59.949Z,64.80
2018-10-11T04:50:03.681Z,64.80
2018-10-11T04:54:07.442Z,64.70
2018-10-11T04:58:11.219Z,64.40
2018-10-11T05:02:14.983Z,64.40
2018-10-11T05:06:18.747Z,64.70
2018-10-11T05:10:22.493Z,64.70
2018-10-11T05:14:26.442Z,64.70
2018-10-11T05:18:30.324Z,65.10
2018-10-11T05:22:34.090Z,65.00
2018-10-11T05:26:37.876Z,64.90
2018-10-11T05:30:43.885Z,64.60
2018-10-11T05:34:47.771Z,64.60
2018-10-11T05:38:51.548Z,65.00
2018-10-11T05:42:55.363Z,64.90
2018-10-11T05:46:59.312Z,65.00
2018-10-11T05:51:04.606Z,64.60
2018-10-11T05:55:08.393Z,65.00
2018-10-11T05:59:12.482Z,65.00
2018-10-11T06:03:16.264Z,64.90
2018-10-11T06:07:20.110Z,64.90
2018-10-11T06:11:23.940Z,64.90
2018-10-11T06:15:27.730Z,65.10
2018-10-11T06:19:31.546Z,65.20
2018-10-11T06:23:35.359Z,65.20
2018-10-11T06:27:39.179Z,65.60
2018-10-11T06:31:43.060Z,65.50
2018-10-11T06:35:46.996Z,66.00
2018-10-11T06:39:50.842Z,65.60
2018-10-11T06:43:54.669Z,65.50
2018-10-11T06:48:00.461Z,66.00
2018-10-11T06:52:04.262Z,66.00
2018-10-11T06:56:07.959Z,66.10
2018-10-11T07:00:11.795Z,66.40
2018-10-11T07:04:15.502Z,66.20
2018-10-11T07:08:19.324Z,66.30
2018-10-11T07:12:23.118Z,66.80
2018-10-11T07:16:26.834Z,66.70
2018-10-11T07:20:30.599Z,66.80
2018-10-11T07:24:34.411Z,67.20
2018-10-11T07:28:38.212Z,67.00
2018-10-11T07:32:41.915Z,67.20
2018-10-11T07:36:45.610Z,67.30
2018-10-11T07:40:49.453Z,67.40
2018-10-11T07:44:53.177Z,67.80
2018-10-11T07:48:56.882Z,68.00
2018-10-11T07:53:00.649Z,68.40
2018-10-11T07:57:04.712Z,68.40
2018-10-11T08:01:08.498Z,68.00
2018-10-11T08:05:12.352Z,68.40
2018-10-11T08:09:16.112Z,68.40
2018-10-11T08:13:19.909Z,68.30
2018-10-11T08:17:23.988Z,69.90
2018-10-11T08:21:27.351Z,69.30
2018-10-11T08:25:31.370Z,69.10
2018-10-11T08:29:34.900Z,69.30
2018-10-11T08:33:38.631Z,68.80
2018-10-11T08:37:42.447Z,71.70
2018-10-11T08:41:46.127Z,69.70
2018-10-11T08:45:49.851Z,71.40
2018-10-11T08:49:53.633Z,70.50
2018-10-11T08:54:01.579Z,68.90
2018-10-11T08:58:05.391Z,68.40
2018-10-11T09:02:09.410Z,68.80
2018-10-11T09:06:13.129Z,68.60
2018-10-11T09:10:16.861Z,69.40
2018-10-11T09:14:20.585Z,68.80
2018-10-11T09:18:24.399Z,68.80
2018-10-11T09:22:28.121Z,67.90
2018-10-11T09:26:31.914Z,68.80
2018-10-11T09:30:35.693Z,68.80
2018-10-11T09:34:39.466Z,68.10
2018-10-11T09:38:43.201Z,68.00
2018-10-11T09:42:46.954Z,67.90
2018-10-11T09:46:50.679Z,68.00
2018-10-11T09:50:54.418Z,68.80
2018-10-11T09:54:58.425Z,68.10
2018-10-11T09:59:02.051Z,67.50
2018-10-11T10:03:05.923Z,67.60
2018-10-11T10:07:10.086Z,67.40
2018-10-11T10:11:13.785Z,68.20
2018-10-11T10:15:17.538Z,67.20
2018-10-11T10:19:21.214Z,67.00
2018-10-11T10:23:24.920Z,66.60
2018-10-11T10:27:28.756Z,66.10
2018-10-11T10:31:32.425Z,66.80
2018-10-11T10:35:36.200Z,66.90
2018-10-11T10:39:39.937Z,67.40
2018-10-11T10:43:43.733Z,65.60
2018-10-11T10:47:47.466Z,65.50
2018-10-11T10:51:51.244Z,66.00
2018-10-11T10:55:54.957Z,65.90
2018-10-11T10:59:58.674Z,65.70
2018-10-11T11:04:02.431Z,65.90
2018-10-11T11:08:06.180Z,65.10
2018-10-11T11:12:09.885Z,64.90
2018-10-11T11:16:14.182Z,65.50
2018-10-11T11:20:17.871Z,65.50
2018-10-11T11:24:21.667Z,63.90
2018-10-11T11:28:25.450Z,64.90
2018-10-11T11:32:29.175Z,64.80
2018-10-11T11:36:32.949Z,62.80
2018-10-11T11:40:36.631Z,62.10
2018-10-11T11:44:40.364Z,64.40
2018-10-11T11:48:45.015Z,64.10
2018-10-11T11:52:48.725Z,62.40
2018-10-11T11:56:52.935Z,64.30
2018-10-11T12:00:56.654Z,64.70
2018-10-11T12:05:00.564Z,64.80
2018-10-11T12:09:07.006Z,64.30
2018-10-11T12:13:11.896Z,63.50
2018-10-11T12:17:15.614Z,64.40
2018-10-11T12:21:19.306Z,63.60
2018-10-11T12:25:23.122Z,63.70
2018-10-11T12:29:26.853Z,64.70
2018-10-11T12:33:30.567Z,65.00
2018-10-11T12:37:34.403Z,65.00
2018-10-11T12:41:38.166Z,64.90
2018-10-11T12:45:42.324Z,64.90
2018-10-11T12:49:48.468Z,64.40
2018-10-11T12:53:49.806Z,64.70
2018-10-11T12:57:53.506Z,64.00
2018-10-11T13:01:57.215Z,64.30
2018-10-11T13:06:00.904Z,64.50
2018-10-11T13:10:04.903Z,62.70
2018-10-11T13:14:08.717Z,63.30
2018-10-11T13:18:21.922Z,62.60
2018-10-11T13:22:26.139Z,63.20
2018-10-11T13:26:30.239Z,60.30
2018-10-11T13:30:34.317Z,63.80
2018-10-11T13:34:38.072Z,63.50
2018-10-11T13:38:41.837Z,61.20
2018-10-11T13:42:45.551Z,63.00
2018-10-11T13:46:49.392Z,63.60
2018-10-11T13:50:53.780Z,63.00
2018-10-11T13:54:57.497Z,60.40
2018-10-11T13:59:05.013Z,61.50
2018-10-11T14:03:05.096Z,62.10
2018-10-11T14:07:08.794Z,62.20
2018-10-11T14:11:12.593Z,62.70
2018-10-11T14:15:16.339Z,63.10
2018-10-11T14:19:20.079Z,62.90
2018-10-11T14:23:23.861Z,63.20
2018-10-11T14:27:27.711Z,63.10
2018-10-11T14:31:31.442Z,61.40
2018-10-11T14:35:35.200Z,63.30
2018-10-11T14:39:38.950Z,59.20
2018-10-11T14:43:42.717Z,63.20
2018-10-11T14:47:46.451Z,63.30
2018-10-11T14:51:50.204Z,64.00
2018-10-11T14:55:54.006Z,62.10
2018-10-11T14:59:57.829Z,60.70
2018-10-11T15:04:01.575Z,58.90
2018-10-11T15:08:05.304Z,58.80
2018-10-11T15:12:09.053Z,58.50
2018-10-11T15:16:12.821Z,58.00
2018-10-11T15:20:16.547Z,59.10
2018-10-11T15:24:20.290Z,58.80
2018-10-11T15:28:23.978Z,57.60
2018-10-11T15:32:27.710Z,58.60
2018-10-11T15:36:32.646Z,58.80
2018-10-11T15:40:36.472Z,58.10
2018-10-11T15:44:40.199Z,58.80
2018-10-11T15:48:43.883Z,59.10
2018-10-11T15:52:47.602Z,58.50
2018-10-11T15:56:51.365Z,59.30
2018-10-11T16:00:55.106Z,59.30
2018-10-11T16:04:58.829Z,59.10
2018-10-11T16:09:02.637Z,59.30
2018-10-11T16:13:06.337Z,58.60
2018-10-11T16:17:10.098Z,58.90
2018-10-11T16:21:13.835Z,59.20
2018-10-11T16:25:17.660Z,59.80
2018-10-11T16:29:21.367Z,59.50
2018-10-11T16:33:25.134Z,59.50
2018-10-11T16:37:28.947Z,59.10
2018-10-11T16:41:32.670Z,59.90
2018-10-11T16:45:36.441Z,59.70
2018-10-11T16:49:40.130Z,59.80
2018-10-11T16:53:43.901Z,59.80
2018-10-11T16:57:47.633Z,59.90
2018-10-11T17:01:51.419Z,59.90
2018-10-11T17:05:55.168Z,59.80
2018-10-11T17:09:58.997Z,59.90
2018-10-11T17:14:02.663Z,60.00
2018-10-11T17:18:06.590Z,59.90
2018-10-11T17:22:10.384Z,59.90
2018-10-11T17:26:14.324Z,60.10
2018-10-11T17:30:18.271Z,60.20
2018-10-11T17:34:22.004Z,60.20
2018-10-11T17:38:25.765Z,60.20
2018-10-11T17:42:29.521Z,60.30
2018-10-11T17:46:33.602Z,60.30
2018-10-11T17:50:37.332Z,60.40
2018-10-11T17:54:45.276Z,60.40
2018-10-11T17:58:49.018Z,60.40
2018-10-11T18:02:52.767Z,60.50
2018-10-11T18:06:56.535Z,60.50
2018-10-11T18:11:00.329Z,60.50
2018-10-11T18:15:04.084Z,60.60
2018-10-11T18:19:07.946Z,60.60
2018-10-11T18:23:11.654Z,60.70
2018-10-11T18:27:15.373Z,60.80
2018-10-11T18:31:19.068Z,60.70
2018-10-11T18:35:22.934Z,60.90
2018-10-11T18:39:26.682Z,61.00
2018-10-11T18:43:30.671Z,61.00
2018-10-11T18:47:34.464Z,61.20
2018-10-11T18:51:38.300Z,61.20
2018-10-11T18:55:42.027Z,61.30
2018-10-11T18:59:45.798Z,61.20
2018-10-11T19:03:49.501Z,61.30
2018-10-11T19:07:53.258Z,61.30
2018-10-11T19:11:56.979Z,61.50
2018-10-11T19:16:00.713Z,61.50
2018-10-11T19:20:04.560Z,61.60
2018-10-11T19:24:08.437Z,61.60
2018-10-11T19:28:12.146Z,61.60
2018-10-11T19:32:15.848Z,61.70
2018-10-11T19:36:19.625Z,61.70
2018-10-11T19:40:23.382Z,61.60
2018-10-11T19:44:27.102Z,61.70
2018-10-11T19:48:30.909Z,61.70
2018-10-11T19:52:34.637Z,61.70
2018-10-11T19:56:38.360Z,61.70
2018-10-11T20:00:42.134Z,61.80
2018-10-11T20:04:45.860Z,61.80
2018-10-11T20:08:49.586Z,61.90
2018-10-11T20:12:53.271Z,62.10
2018-10-11T20:16:56.985Z,62.20
2018-10-11T20:21:00.695Z,62.10
2018-10-11T20:25:04.511Z,62.10
2018-10-11T20:29:08.270Z,62.30
2018-10-11T20:33:11.978Z,62.30
2018-10-11T20:37:15.731Z,62.40
2018-10-11T20:41:19.437Z,62.90
2018-10-11T20:45:23.165Z,62.70
2018-10-11T20:49:26.950Z,62.50
2018-10-11T20:53:30.671Z,62.50
2018-10-11T20:57:34.397Z,62.90
2018-10-11T21:01:38.143Z,63.00
2018-10-11T21:05:41.911Z,62.90
2018-10-11T21:09:45.618Z,62.90
2018-10-11T21:13:49.364Z,62.80
2018-10-11T21:17:53.101Z,63.10
2018-10-11T21:21:56.926Z,63.30
2018-10-11T21:26:00.812Z,63.50
2018-10-11T21:30:04.583Z,63.10
2018-10-11T21:34:08.331Z,63.50
2018-10-11T21:38:12.102Z,63.20
2018-10-11T21:42:15.903Z,63.10
2018-10-11T21:46:19.802Z,63.00
2018-10-11T21:50:23.485Z,63.00
2018-10-11T21:54:27.234Z,62.90
2018-10-11T21:58:30.941Z,62.80
2018-10-11T22:02:34.657Z,62.90
2018-10-11T22:06:38.488Z,63.00
2018-10-11T22:10:42.270Z,62.90
2018-10-11T22:14:46.116Z,62.90
2018-10-11T22:18:49.861Z,62.80
2018-10-11T22:22:53.601Z,62.80
2018-10-11T22:26:57.313Z,62.80
2018-10-11T22:31:00.985Z,62.90
2018-10-11T22:35:04.815Z,63.00
2018-10-11T22:39:10.602Z,63.00
2018-10-11T22:43:14.393Z,63.00
2018-10-11T22:47:18.209Z,63.10
2018-10-11T22:51:21.999Z,63.10
2018-10-11T22:55:26.627Z,63.10
2018-10-11T22:59:30.439Z,63.20
2018-10-11T23:03:34.152Z,63.10
2018-10-11T23:07:37.881Z,63.10
2018-10-11T23:11:41.574Z,63.00
2018-10-11T23:15:45.278Z,63.20
2018-10-11T23:41:59.152Z,63.10
2018-10-11T23:46:02.901Z,63.20
2018-10-11T23:50:06.739Z,63.20
2018-10-11T23:54:10.454Z,63.30
2018-10-11T23:58:14.145Z,63.30
